createdAt,value
2018-05-14T00:00:21.792Z,16.00
2018-05-14T00:02:49.461Z,15.90
2018-05-14T00:05:17.128Z,15.90
2018-05-14T00:07:44.776Z,15.90
2018-05-14T00:10:12.549Z,15.80
2018-05-14T00:12:40.211Z,15.80
2018-05-14T00:15:07.882Z,15.80
2018-05-14T00:17:35.541Z,15.80
2018-05-14T00:20:03.225Z,15.70
2018-05-14T00:22:32.921Z,15.70
2018-05-14T00:25:02.563Z,15.70
2018-05-14T00:27:31.163Z,15.70
2018-05-14T00:29:58.850Z,15.70
2018-05-14T00:32:26.528Z,15.70
2018-05-14T00:34:54.199Z,15.60
2018-05-14T00:37:22.625Z,15.60
2018-05-14T00:39:50.295Z,15.60
2018-05-14T00:42:17.961Z,15.50
2018-05-14T00:44:45.634Z,15.50
2018-05-14T00:47:13.293Z,15.40
2018-05-14T00:49:40.973Z,15.50
2018-05-14T00:52:08.621Z,15.40
2018-05-14T00:54:36.321Z,15.40
2018-05-14T00:57:04.740Z,15.30
2018-05-14T00:59:32.439Z,15.30
2018-05-14T01:02:01.199Z,15.30
2018-05-14T01:04:30.290Z,15.30
2018-05-14T01:06:57.971Z,15.20
2018-05-14T01:09:25.649Z,15.30
2018-05-14T01:11:54.105Z,15.20
2018-05-14T01:14:21.774Z,15.20
2018-05-14T01:16:49.444Z,15.10
2018-05-14T01:19:17.097Z,15.20
2018-05-14T01:21:44.780Z,15.20
2018-05-14T01:24:13.191Z,15.00
2018-05-14T01:26:40.871Z,15.00
2018-05-14T01:29:08.511Z,15.00
2018-05-14T01:31:36.202Z,15.00
2018-05-14T01:34:03.844Z,14.90
2018-05-14T01:36:32.779Z,14.90
2018-05-14T01:39:01.473Z,14.90
2018-05-14T01:41:29.163Z,14.80
2018-05-14T01:43:56.807Z,14.80
2018-05-14T01:46:25.240Z,14.70
2018-05-14T01:48:52.882Z,14.70
2018-05-14T01:51:20.574Z,14.60
2018-05-14T01:53:48.219Z,14.60
2018-05-14T01:56:15.901Z,14.50
2018-05-14T01:58:43.543Z,14.50
2018-05-14T02:01:11.225Z,14.40
2018-05-14T02:03:38.887Z,14.30
2018-05-14T02:06:06.574Z,14.30
2018-05-14T02:08:35.010Z,14.30
2018-05-14T02:11:02.697Z,14.30
2018-05-14T02:13:31.123Z,14.30
2018-05-14T02:15:58.813Z,14.20
2018-05-14T02:18:26.476Z,14.20
2018-05-14T02:20:54.130Z,14.10
2018-05-14T02:23:21.813Z,14.10
2018-05-14T02:25:49.477Z,14.00
2018-05-14T02:28:17.167Z,14.00
2018-05-14T02:30:45.591Z,13.90
2018-05-14T02:33:13.267Z,13.90
2018-05-14T02:35:40.926Z,13.90
2018-05-14T02:38:08.598Z,13.90
2018-05-14T02:40:36.271Z,13.90
2018-05-14T02:43:03.951Z,13.90
2018-05-14T02:45:32.379Z,13.80
2018-05-14T02:48:01.191Z,13.80
2018-05-14T02:50:28.839Z,13.80
2018-05-14T02:52:56.525Z,13.80
2018-05-14T02:55:24.194Z,13.80
2018-05-14T02:57:51.863Z,13.80
2018-05-14T03:00:20.277Z,13.80
2018-05-14T03:02:47.970Z,13.70
2018-05-14T03:05:15.634Z,13.70
2018-05-14T03:07:43.323Z,13.70
2018-05-14T03:10:11.798Z,13.70
2018-05-14T03:12:39.493Z,13.70
2018-05-14T03:15:07.154Z,13.70
2018-05-14T03:17:34.862Z,13.70
2018-05-14T03:20:02.612Z,13.60
2018-05-14T03:22:31.057Z,13.70
2018-05-14T03:24:58.717Z,13.60
2018-05-14T03:27:26.405Z,13.60
2018-05-14T03:29:54.091Z,13.70
2018-05-14T03:32:21.797Z,13.70
2018-05-14T03:34:50.227Z,13.70
2018-05-14T03:37:17.877Z,13.70
2018-05-14T03:39:45.567Z,13.70
2018-05-14T03:42:13.221Z,13.70
2018-05-14T03:44:40.902Z,13.70
2018-05-14T03:47:08.571Z,13.60
2018-05-14T03:49:37.031Z,13.60
2018-05-14T03:52:04.704Z,13.60
2018-05-14T03:54:32.387Z,13.70
2018-05-14T03:57:01.242Z,13.70
2018-05-14T03:59:40.794Z,13.80
2018-05-14T04:02:21.264Z,13.70
2018-05-14T04:05:01.432Z,13.80
2018-05-14T04:07:30.270Z,13.80
2018-05-14T04:09:57.974Z,13.80
2018-05-14T04:12:26.398Z,13.80
2018-05-14T04:14:54.084Z,13.80
2018-05-14T04:17:21.767Z,13.90
2018-05-14T04:19:50.318Z,13.90
2018-05-14T04:22:18.042Z,13.90
2018-05-14T04:24:45.742Z,13.90
2018-05-14T04:27:13.404Z,14.00
2018-05-14T04:29:41.094Z,14.00
2018-05-14T04:32:08.761Z,14.00
2018-05-14T04:34:37.229Z,14.20
2018-05-14T04:37:04.883Z,14.10
2018-05-14T04:39:32.562Z,14.20
2018-05-14T04:42:00.251Z,14.20
2018-05-14T04:44:27.957Z,14.30
2018-05-14T04:46:55.618Z,14.30
2018-05-14T04:49:23.293Z,14.30
2018-05-14T04:51:50.959Z,14.40
2018-05-14T04:54:18.648Z,14.40
2018-05-14T04:56:47.083Z,14.50
2018-05-14T04:59:14.782Z,14.50
2018-05-14T05:01:43.214Z,14.60
2018-05-14T05:04:10.876Z,14.60
2018-05-14T05:06:38.560Z,14.70
2018-05-14T05:09:06.221Z,14.80
2018-05-14T05:11:33.968Z,14.80
2018-05-14T05:14:01.938Z,14.90
2018-05-14T05:16:30.334Z,15.00
2018-05-14T05:18:57.998Z,15.10
2018-05-14T05:21:25.677Z,15.20
2018-05-14T05:23:54.186Z,15.30
2018-05-14T05:26:21.878Z,15.30
2018-05-14T05:28:49.529Z,15.50
2018-05-14T05:31:17.214Z,15.60
2018-05-14T05:33:44.890Z,15.60
2018-05-14T05:36:12.577Z,15.60
2018-05-14T05:38:47.893Z,15.80
2018-05-14T05:41:17.521Z,15.80
2018-05-14T05:43:46.507Z,15.90
2018-05-14T05:46:14.212Z,16.10
2018-05-14T05:48:41.865Z,16.10
2018-05-14T05:51:09.554Z,16.20
2018-05-14T05:53:37.210Z,16.40
2018-05-14T05:56:04.885Z,16.50
2018-05-14T05:58:32.546Z,16.60
2018-05-14T06:01:01.514Z,16.80
2018-05-14T06:03:29.177Z,16.90
2018-05-14T06:05:56.873Z,17.10
2018-05-14T06:08:24.533Z,17.20
2018-05-14T06:10:52.217Z,17.40
2018-05-14T06:13:20.653Z,17.70
2018-05-14T06:15:48.343Z,17.60
2018-05-14T06:18:15.997Z,17.70
2018-05-14T06:20:43.716Z,17.80
2018-05-14T06:23:11.389Z,17.90
2018-05-14T06:25:39.052Z,18.10
2018-05-14T06:28:07.501Z,18.40
2018-05-14T06:30:35.161Z,18.40
2018-05-14T06:33:02.846Z,18.60
2018-05-14T06:35:31.233Z,18.80
2018-05-14T06:37:58.854Z,19.10
2018-05-14T06:40:27.283Z,19.50
2018-05-14T06:42:54.970Z,19.50
2018-05-14T06:45:22.630Z,19.70
2018-05-14T06:47:50.316Z,20.00
2018-05-14T06:50:18.746Z,20.20
2018-05-14T06:52:46.425Z,20.20
2018-05-14T06:55:14.118Z,20.40
2018-05-14T06:57:42.571Z,20.70
2018-05-14T07:00:10.226Z,20.70
2018-05-14T07:02:37.909Z,20.90
2018-05-14T07:05:05.558Z,21.10
2018-05-14T07:07:33.450Z,21.40
2018-05-14T07:10:02.798Z,21.70
2018-05-14T07:12:31.619Z,21.70
2018-05-14T07:14:59.268Z,21.80
2018-05-14T07:17:26.947Z,21.70
2018-05-14T07:19:54.872Z,22.10
2018-05-14T07:22:22.303Z,22.60
2018-05-14T07:24:50.012Z,22.90
2018-05-14T07:27:17.674Z,23.00
2018-05-14T07:29:45.317Z,23.20
2018-05-14T07:32:12.984Z,23.40
2018-05-14T07:34:40.628Z,23.50
2018-05-14T07:37:08.331Z,23.80
2018-05-14T07:39:35.990Z,23.80
2018-05-14T07:42:03.924Z,24.00
2018-05-14T07:44:32.449Z,24.20
2018-05-14T07:47:01.222Z,24.40
2018-05-14T07:49:28.905Z,24.40
2018-05-14T07:51:57.326Z,24.60
2018-05-14T07:54:25.026Z,24.60
2018-05-14T07:56:52.686Z,24.80
2018-05-14T07:59:20.377Z,24.70
2018-05-14T08:01:48.788Z,24.50
2018-05-14T08:04:16.473Z,24.50
2018-05-14T08:06:44.134Z,24.70
2018-05-14T08:09:11.846Z,24.50
2018-05-14T08:11:40.320Z,24.90
2018-05-14T08:14:07.987Z,24.90
2018-05-14T08:16:36.415Z,24.80
2018-05-14T08:19:04.097Z,24.80
2018-05-14T08:21:32.827Z,24.70
2018-05-14T08:24:01.704Z,24.60
2018-05-14T08:26:31.180Z,25.20
2018-05-14T08:28:58.863Z,25.20
2018-05-14T08:31:27.309Z,25.60
2018-05-14T08:33:54.995Z,25.60
2018-05-14T08:36:22.646Z,25.50
2018-05-14T08:38:50.312Z,25.70
2018-05-14T08:41:17.955Z,25.80
2018-05-14T08:43:45.621Z,25.60
2018-05-14T08:46:13.269Z,25.60
2018-05-14T08:48:40.947Z,25.90
2018-05-14T08:51:08.604Z,26.30
2018-05-14T08:53:36.294Z,26.40
2018-05-14T08:56:04.715Z,26.50
2018-05-14T08:58:32.406Z,26.50
2018-05-14T09:01:01.036Z,26.70
2018-05-14T09:03:28.717Z,26.70
2018-05-14T09:05:56.405Z,26.40
2018-05-14T09:08:24.072Z,26.70
2018-05-14T09:10:51.768Z,26.30
2018-05-14T09:13:20.196Z,26.70
2018-05-14T09:15:47.873Z,26.70
2018-05-14T09:18:15.540Z,26.80
2018-05-14T09:20:43.203Z,27.10
2018-05-14T09:23:10.850Z,27.30
2018-05-14T09:25:38.536Z,27.30
2018-05-14T09:28:06.194Z,27.10
2018-05-14T09:30:33.878Z,27.00
2018-05-14T09:33:02.305Z,26.70
2018-05-14T09:35:30.715Z,26.70
2018-05-14T09:37:58.362Z,27.00
2018-05-14T09:40:26.042Z,27.40
2018-05-14T09:42:53.699Z,27.60
2018-05-14T09:45:21.381Z,27.00
2018-05-14T09:47:49.785Z,27.20
2018-05-14T09:50:17.474Z,27.10
2018-05-14T09:52:45.135Z,27.00
2018-05-14T09:55:12.813Z,27.10
2018-05-14T09:57:40.490Z,27.10
2018-05-14T10:00:08.166Z,27.40
2018-05-14T10:02:35.821Z,27.50
2018-05-14T10:05:04.279Z,27.30
2018-05-14T10:07:31.927Z,27.30
2018-05-14T10:10:00.406Z,27.00
2018-05-14T10:12:28.075Z,27.00
2018-05-14T10:14:55.733Z,26.70
2018-05-14T10:17:23.381Z,26.70
2018-05-14T10:19:51.076Z,27.20
2018-05-14T10:22:18.731Z,27.30
2018-05-14T10:24:46.424Z,27.80
2018-05-14T10:27:14.887Z,28.00
2018-05-14T10:29:42.542Z,28.00
2018-05-14T10:32:10.222Z,28.40
2018-05-14T10:34:38.620Z,28.40
2018-05-14T10:37:06.360Z,28.30
2018-05-14T10:39:34.800Z,27.80
2018-05-14T10:42:02.483Z,27.80
2018-05-14T10:44:31.164Z,27.50
2018-05-14T10:46:58.841Z,28.10
2018-05-14T10:49:26.487Z,27.90
2018-05-14T10:51:54.182Z,28.40
2018-05-14T10:54:22.586Z,28.40
2018-05-14T10:56:50.262Z,28.40
2018-05-14T10:59:17.915Z,28.30
2018-05-14T11:01:45.598Z,28.40
2018-05-14T11:04:13.251Z,27.90
2018-05-14T11:06:40.926Z,27.60
2018-05-14T11:09:08.581Z,28.00
2018-05-14T11:11:36.262Z,28.50
2018-05-14T11:14:03.903Z,28.80
2018-05-14T11:16:32.720Z,28.80
2018-05-14T11:19:01.089Z,28.80
2018-05-14T11:21:28.780Z,29.10
2018-05-14T11:23:57.187Z,28.50
2018-05-14T11:26:24.867Z,28.50
2018-05-14T11:28:52.521Z,28.60
2018-05-14T11:31:20.210Z,28.90
2018-05-14T11:33:47.869Z,28.90
2018-05-14T11:36:17.059Z,28.90
2018-05-14T11:38:44.706Z,28.90
2018-05-14T11:41:12.348Z,28.50
2018-05-14T11:43:40.028Z,28.40
2018-05-14T11:46:07.675Z,28.60
2018-05-14T11:48:35.368Z,29.10
2018-05-14T11:51:03.133Z,29.20
2018-05-14T11:53:30.810Z,29.10
2018-05-14T11:55:58.477Z,28.40
2018-05-14T11:58:26.927Z,28.50
2018-05-14T12:00:54.687Z,28.50
2018-05-14T12:03:22.356Z,28.40
2018-05-14T12:05:50.017Z,28.50
2018-05-14T12:08:17.686Z,28.00
2018-05-14T12:10:45.345Z,27.70
2018-05-14T12:13:13.025Z,28.10
2018-05-14T12:15:40.690Z,28.10
2018-05-14T12:18:08.436Z,28.20
2018-05-14T12:20:36.070Z,28.40
2018-05-14T12:23:03.944Z,28.90
2018-05-14T12:25:32.807Z,28.90
2018-05-14T12:28:01.140Z,28.40
2018-05-14T12:30:28.953Z,28.40
2018-05-14T12:32:56.641Z,28.20
2018-05-14T12:35:24.303Z,28.60
2018-05-14T12:37:51.986Z,28.50
2018-05-14T12:40:19.637Z,28.80
2018-05-14T12:42:47.300Z,28.20
2018-05-14T12:45:14.935Z,28.50
2018-05-14T12:47:42.609Z,28.80
2018-05-14T12:50:10.254Z,28.90
2018-05-14T12:52:37.919Z,29.20
2018-05-14T12:55:05.598Z,29.10
2018-05-14T12:57:33.254Z,29.50
2018-05-14T13:00:00.930Z,29.40
2018-05-14T13:02:28.591Z,29.40
2018-05-14T13:04:56.269Z,29.40
2018-05-14T13:07:23.911Z,28.70
2018-05-14T13:09:51.621Z,28.40
2018-05-14T13:12:19.274Z,28.30
2018-05-14T13:14:47.705Z,28.90
2018-05-14T13:17:15.365Z,28.90
2018-05-14T13:19:43.030Z,28.90
2018-05-14T13:22:10.677Z,28.70
2018-05-14T13:24:38.366Z,29.00
2018-05-14T13:27:06.019Z,29.00
2018-05-14T13:29:33.701Z,28.50
2018-05-14T13:32:02.657Z,28.70
2018-05-14T13:34:32.275Z,28.70
2018-05-14T13:37:00.555Z,28.70
2018-05-14T13:39:29.039Z,28.90
2018-05-14T13:41:56.693Z,28.90
2018-05-14T13:44:24.395Z,28.90
2018-05-14T13:46:52.800Z,28.20
2018-05-14T13:49:20.486Z,28.10
2018-05-14T13:51:48.136Z,28.20
2018-05-14T13:54:15.808Z,28.60
2018-05-14T13:56:43.460Z,29.00
2018-05-14T13:59:11.143Z,28.70
2018-05-14T14:01:38.810Z,28.50
2018-05-14T14:04:06.753Z,28.40
2018-05-14T14:06:34.415Z,28.40
2018-05-14T14:09:02.077Z,28.60
2018-05-14T14:11:31.202Z,28.40
2018-05-14T14:14:00.378Z,28.10
2018-05-14T14:16:28.093Z,28.10
2018-05-14T14:18:56.508Z,28.00
2018-05-14T14:21:24.194Z,27.90
2018-05-14T14:23:52.103Z,28.00
2018-05-14T14:26:19.536Z,28.30
2018-05-14T14:28:47.968Z,29.00
2018-05-14T14:31:15.648Z,29.00
2018-05-14T14:33:43.308Z,29.30
2018-05-14T14:36:11.049Z,29.30
2018-05-14T14:38:39.437Z,28.20
2018-05-14T14:41:07.239Z,28.20
2018-05-14T14:43:34.902Z,28.40
2018-05-14T14:46:02.599Z,28.30
2018-05-14T14:48:31.341Z,27.70
2018-05-14T14:50:59.015Z,28.10
2018-05-14T14:53:26.678Z,28.20
2018-05-14T14:55:55.145Z,28.50
2018-05-14T14:58:22.827Z,28.50
2018-05-14T15:00:50.528Z,28.60
2018-05-14T15:03:18.197Z,28.70
2018-05-14T15:05:45.871Z,28.10
2018-05-14T15:08:13.545Z,28.70
2018-05-14T15:10:41.230Z,28.50
2018-05-14T15:13:09.662Z,28.60
2018-05-14T15:15:37.336Z,28.60
2018-05-14T15:18:05.002Z,28.60
2018-05-14T15:20:32.691Z,29.00
2018-05-14T15:23:01.183Z,28.80
2018-05-14T15:25:30.236Z,28.90
2018-05-14T15:27:57.895Z,28.90
2018-05-14T15:30:25.554Z,29.10
2018-05-14T15:32:53.247Z,29.10
2018-05-14T15:35:20.902Z,29.40
2018-05-14T15:37:48.579Z,29.20
2018-05-14T15:40:16.215Z,29.50
2018-05-14T15:42:43.896Z,29.40
2018-05-14T15:45:11.554Z,28.60
2018-05-14T15:47:39.241Z,28.70
2018-05-14T15:50:07.667Z,29.20
2018-05-14T15:52:35.350Z,29.20
2018-05-14T15:55:03.026Z,29.60
2018-05-14T15:57:32.401Z,28.80
2018-05-14T16:00:01.186Z,28.80
2018-05-14T16:02:28.874Z,29.40
2018-05-14T16:04:56.519Z,29.30
2018-05-14T16:07:24.201Z,29.30
2018-05-14T16:09:52.631Z,28.70
2018-05-14T16:12:20.317Z,28.70
2018-05-14T16:14:47.979Z,29.00
2018-05-14T16:17:15.661Z,29.20
2018-05-14T16:19:43.313Z,29.30
2018-05-14T16:22:10.989Z,29.00
2018-05-14T16:24:39.413Z,29.80
2018-05-14T16:27:07.097Z,29.80
2018-05-14T16:29:34.770Z,30.30
2018-05-14T16:32:02.625Z,30.90
2018-05-14T16:34:30.805Z,30.50
2018-05-14T16:36:58.490Z,30.50
2018-05-14T16:39:26.154Z,30.90
2018-05-14T16:41:54.668Z,29.90
2018-05-14T16:44:23.072Z,29.00
2018-05-14T16:46:50.741Z,28.90
2018-05-14T16:49:18.438Z,29.50
2018-05-14T16:51:46.857Z,29.80
2018-05-14T16:54:14.533Z,29.70
2018-05-14T16:56:42.194Z,29.90
2018-05-14T16:59:09.880Z,29.80
2018-05-14T17:01:37.534Z,29.70
2018-05-14T17:04:05.435Z,30.00
2018-05-14T17:06:33.165Z,29.40
2018-05-14T17:09:00.873Z,28.20
2018-05-14T17:11:28.530Z,27.00
2018-05-14T17:13:56.993Z,25.90
2018-05-14T17:16:24.658Z,25.80
2018-05-14T17:18:53.113Z,24.90
2018-05-14T17:21:20.764Z,24.90
2018-05-14T17:23:48.443Z,24.90
2018-05-14T17:26:16.093Z,24.70
2018-05-14T17:28:43.770Z,24.20
2018-05-14T17:31:11.416Z,24.20
2018-05-14T17:33:39.101Z,23.90
2018-05-14T17:36:07.635Z,23.70
2018-05-14T17:38:35.338Z,23.70
2018-05-14T17:41:03.108Z,23.60
2018-05-14T17:43:31.671Z,23.60
2018-05-14T17:45:59.336Z,23.50
2018-05-14T17:48:27.011Z,23.40
2018-05-14T17:50:54.671Z,23.30
2018-05-14T17:53:22.359Z,22.90
2018-05-14T17:55:50.018Z,22.60
2018-05-14T17:58:18.442Z,22.50
2018-05-14T18:00:46.143Z,22.50
2018-05-14T18:03:14.564Z,22.20
2018-05-14T18:05:42.257Z,22.20
2018-05-14T18:08:09.920Z,22.10
2018-05-14T18:10:37.660Z,22.10
2018-05-14T18:13:05.335Z,22.00
2018-05-14T18:15:33.011Z,21.70
2018-05-14T18:18:01.847Z,21.60
2018-05-14T18:20:29.495Z,21.50
2018-05-14T18:22:58.029Z,21.40
2018-05-14T18:25:31.280Z,21.30
2018-05-14T18:28:11.758Z,21.10
2018-05-14T18:30:39.447Z,21.10
2018-05-14T18:33:11.081Z,21.10
2018-05-14T18:35:54.526Z,21.00
2018-05-14T18:38:22.176Z,20.90
2018-05-14T18:40:50.708Z,20.70
2018-05-14T18:43:19.144Z,20.50
2018-05-14T18:45:46.825Z,20.50
2018-05-14T18:48:14.482Z,20.40
2018-05-14T18:50:42.199Z,20.30
2018-05-14T18:53:09.856Z,20.20
2018-05-14T18:55:37.571Z,20.10
2018-05-14T18:58:05.371Z,20.00
2018-05-14T19:00:33.825Z,19.70
2018-05-14T19:03:02.443Z,19.70
2018-05-14T19:05:30.887Z,19.60
2018-05-14T19:07:58.545Z,19.60
2018-05-14T19:10:31.983Z,19.40
2018-05-14T19:13:00.308Z,19.40
2018-05-14T19:15:33.671Z,19.30
2018-05-14T19:18:02.678Z,19.10
2018-05-14T19:20:31.727Z,19.10
2018-05-14T19:23:05.904Z,18.90
2018-05-14T19:25:33.659Z,18.80
2018-05-14T19:28:08.269Z,18.80
2018-05-14T19:30:36.690Z,18.70
2018-05-14T19:33:04.353Z,18.70
2018-05-14T19:35:37.894Z,18.70
2018-05-14T19:38:06.020Z,18.60
2018-05-14T19:40:40.242Z,18.50
2018-05-14T19:43:08.195Z,18.50
2018-05-14T19:45:36.680Z,18.30
2018-05-14T19:48:04.326Z,18.30
2018-05-14T19:50:32.106Z,18.20
2018-05-14T19:53:02.203Z,18.00
2018-05-14T19:55:30.519Z,18.00
2018-05-14T19:57:58.962Z,17.80
2018-05-14T20:00:26.635Z,17.80
2018-05-14T20:02:54.319Z,17.70
2018-05-14T20:05:22.739Z,17.70
2018-05-14T20:07:50.422Z,17.70
2018-05-14T20:10:18.102Z,17.60
2018-05-14T20:12:45.797Z,17.60
2018-05-14T20:15:13.474Z,17.50
2018-05-14T20:17:41.153Z,17.50
2018-05-14T20:20:08.909Z,17.40
2018-05-14T20:22:36.530Z,17.40
2018-05-14T20:25:04.290Z,17.30
2018-05-14T20:27:32.762Z,17.30
2018-05-14T20:30:01.442Z,17.20
2018-05-14T20:32:30.568Z,17.10
2018-05-14T20:34:59.004Z,17.10
2018-05-14T20:37:26.764Z,17.10
2018-05-14T20:39:54.372Z,17.00
2018-05-14T20:42:22.831Z,16.90
2018-05-14T20:44:50.495Z,16.90
2018-05-14T20:47:18.191Z,16.80
2018-05-14T20:49:45.853Z,16.80
2018-05-14T20:52:13.581Z,16.70
2018-05-14T20:54:41.210Z,16.70
2018-05-14T20:57:08.893Z,16.60
2018-05-14T20:59:36.578Z,16.60
2018-05-14T21:02:05.007Z,16.50
2018-05-14T21:04:32.698Z,16.50
2018-05-14T21:07:01.133Z,16.40
2018-05-14T21:09:28.805Z,16.40
2018-05-14T21:11:56.468Z,16.40
2018-05-14T21:14:24.173Z,16.30
2018-05-14T21:16:51.840Z,16.30
2018-05-14T21:19:19.549Z,16.30
2018-05-14T21:21:47.223Z,16.20
2018-05-14T21:24:14.910Z,16.20
2018-05-14T21:26:42.562Z,16.10
2018-05-14T21:29:10.368Z,16.00
2018-05-14T21:31:38.791Z,15.90
2018-05-14T21:34:06.486Z,15.90
2018-05-14T21:36:34.127Z,15.80
2018-05-14T21:39:01.977Z,15.80
2018-05-14T21:41:30.464Z,15.90
2018-05-14T21:43:58.148Z,15.80
2018-05-14T21:46:25.813Z,15.80
2018-05-14T21:48:53.505Z,15.80
2018-05-14T21:51:21.172Z,15.70
2018-05-14T21:53:48.867Z,15.70
2018-05-14T21:56:16.534Z,15.70
2018-05-14T21:58:44.211Z,15.70
2018-05-14T22:01:11.857Z,15.70
2018-05-14T22:03:39.550Z,15.60
2018-05-14T22:06:07.401Z,15.50
2018-05-14T22:08:35.073Z,15.50
2018-05-14T22:11:02.741Z,15.40
2018-05-14T22:13:31.781Z,15.40
2018-05-14T22:15:59.437Z,15.40
2018-05-14T22:18:27.128Z,15.30
2018-05-14T22:20:54.817Z,15.20
2018-05-14T22:23:22.481Z,15.10
2018-05-14T22:25:50.156Z,15.10
2018-05-14T22:28:18.583Z,14.80
2018-05-14T22:30:46.271Z,14.80
2018-05-14T22:33:13.949Z,14.80
2018-05-14T22:35:42.419Z,14.60
2018-05-14T22:38:10.070Z,14.60
2018-05-14T22:40:37.734Z,14.60
2018-05-14T22:43:05.404Z,14.50
2018-05-14T22:45:33.073Z,14.60
2018-05-14T22:48:02.479Z,14.40
2018-05-14T22:50:30.935Z,14.40
2018-05-14T22:52:58.619Z,14.40
2018-05-14T22:55:27.074Z,14.30
2018-05-14T22:57:54.788Z,14.30
2018-05-14T23:00:38.279Z,14.20
2018-05-14T23:03:05.939Z,14.20
2018-05-14T23:05:33.619Z,14.20
2018-05-14T23:08:02.228Z,14.00
2018-05-14T23:10:29.966Z,14.00
2018-05-14T23:12:58.394Z,14.00
2018-05-14T23:15:26.074Z,14.00
2018-05-14T23:17:53.717Z,14.00
2018-05-14T23:20:21.392Z,13.90
2018-05-14T23:22:49.055Z,14.00
2018-05-14T23:25:16.751Z,13.90
2018-05-14T23:27:45.373Z,13.90
2018-05-14T23:30:13.058Z,13.80
2018-05-14T23:32:40.727Z,13.80
2018-05-14T23:35:08.446Z,13.80
2018-05-14T23:37:36.954Z,13.70
2018-05-14T23:40:04.633Z,13.70
2018-05-14T23:42:33.075Z,13.70
2018-05-14T23:45:01.904Z,13.70
2018-05-14T23:47:30.680Z,13.70
2018-05-14T23:49:58.370Z,13.70
2018-05-14T23:52:26.074Z,13.70
2018-05-14T23:54:53.749Z,13.70
2018-05-14T23:57:21.450Z,13.70
2018-05-14T23:59:49.247Z,13.70
